»·PEaware :: N636EV KSDF-KDCA

N636EV :: KSDF-KDCA

FLIGHT INFORMATION

Flight Status: Arrived
Operator: Privately registered:
United States
More flights under this callsign
Pilot: Drew L. (13237)
Aircraft: CESSNA 172 SKYHAWK
(C172)
More flights by this aircraft type
Origin: KSDF Louisville Intl-Standiford
United States
Destination: KDCA Ronald Reagan Washington Natl
United States
More flights between these airports :: More routes between these airports
Route:
File this flight plan on PilotEdge
Remarks:
Altitude:
(Current/Filed)
9,500ft
Speed:
(Current/Filed)
134kts
Departed: 22-Apr-17 09:28 PM
Arrived: 23-Apr-17 12:29 AM
Distance/Time
Traveled:
410nm/3:01
Distance/Time
To Go:
Arrived

Flight Plot

Page will automatically refresh every two minutes.

Flight plan parsing failed; only flown route is shown


Map Options




Map Legend


Flown Route
Filed Route
Departure Airport
Arrival Airport
Navaid (VOR, NDB)
Fix

Horizontal Profiles

Position Reports

Time Latitude Longitude Heading Altitude Ground
Speed
22-Apr-17 21:29 38.191399 -85.733376 345 847ft 64kts
22-Apr-17 21:30 38.200241 -85.717793 109 1791ft 93kts
22-Apr-17 21:31 38.192630 -85.686401 88 2599ft 94kts
22-Apr-17 21:32 38.193387 -85.653571 81 3417ft 92kts
22-Apr-17 21:33 38.195983 -85.621155 76 4208ft 97kts
22-Apr-17 21:34 38.199664 -85.586459 88 5017ft 100kts
22-Apr-17 21:35 38.203335 -85.551399 87 5849ft 99kts
22-Apr-17 21:36 38.207007 -85.518030 86 6629ft 94kts
22-Apr-17 21:37 38.210731 -85.484498 85 7254ft 107kts
22-Apr-17 21:38 38.215255 -85.443951 84 7685ft 122kts
22-Apr-17 21:39 38.220115 -85.400579 83 8100ft 124kts
22-Apr-17 21:40 38.224977 -85.357083 83 8510ft 124kts
22-Apr-17 21:41 38.229790 -85.313914 83 8897ft 124kts
22-Apr-17 21:42 38.234604 -85.270576 83 9286ft 123kts
22-Apr-17 21:43 38.239369 -85.227510 82 9675ft 122kts
22-Apr-17 21:44 38.244663 -85.179406 82 9559ft 143kts
22-Apr-17 21:45 38.250137 -85.129549 82 9560ft 142kts
22-Apr-17 21:46 38.255564 -85.079955 82 9560ft 142kts
22-Apr-17 21:47 38.260985 -85.030156 82 9561ft 142kts
22-Apr-17 21:48 38.266374 -84.980426 82 9561ft 142kts
22-Apr-17 21:49 38.271760 -84.930567 82 9561ft 142kts
22-Apr-17 21:50 38.277118 -84.880779 82 9561ft 142kts
22-Apr-17 21:51 38.282408 -84.830907 81 9562ft 142kts
22-Apr-17 21:52 38.287765 -84.781116 81 9562ft 142kts
22-Apr-17 21:53 38.293099 -84.731022 81 9562ft 142kts
22-Apr-17 21:54 38.298395 -84.680964 81 9562ft 142kts
22-Apr-17 21:55 38.303665 -84.630940 81 9563ft 142kts
22-Apr-17 21:56 38.308888 -84.581166 81 9586ft 141kts
22-Apr-17 21:57 38.314105 -84.531268 81 9590ft 142kts
22-Apr-17 21:58 38.319337 -84.480994 81 9590ft 143kts
22-Apr-17 21:59 38.324529 -84.430899 81 9590ft 143kts
22-Apr-17 22:00 38.329687 -84.380880 81 9591ft 143kts
22-Apr-17 22:01 38.334808 -84.331031 81 9587ft 142kts
22-Apr-17 22:02 38.339924 -84.280982 81 9587ft 142kts
22-Apr-17 22:03 38.344998 -84.231152 81 9587ft 142kts
22-Apr-17 22:04 38.350078 -84.181036 82 9587ft 142kts
22-Apr-17 22:05 38.355116 -84.131119 82 9588ft 142kts
22-Apr-17 22:06 38.360005 -84.081065 78 9588ft 142kts
22-Apr-17 22:07 38.365131 -84.030952 77 9588ft 142kts
22-Apr-17 22:08 38.370140 -83.981033 77 9588ft 142kts
22-Apr-17 22:09 38.375128 -83.930860 77 9589ft 142kts
22-Apr-17 22:10 38.380088 -83.880652 77 9589ft 142kts
22-Apr-17 22:11 38.385007 -83.830583 77 9589ft 143kts
22-Apr-17 22:12 38.389931 -83.780260 77 9589ft 143kts
22-Apr-17 22:13 38.394389 -83.734526 77 9590ft 143kts
22-Apr-17 22:14 38.399007 -83.686930 77 9590ft 143kts
22-Apr-17 22:15 38.403663 -83.638733 77 9590ft 143kts
22-Apr-17 22:16 38.407031 -83.603733 77 9590ft 143kts
22-Apr-17 22:17 38.409700 -83.575939 77 9590ft 143kts
22-Apr-17 22:18 38.414279 -83.528117 77 9590ft 143kts
22-Apr-17 22:19 38.419070 -83.477816 77 9591ft 143kts
22-Apr-17 22:20 38.423848 -83.427395 77 9591ft 143kts
22-Apr-17 22:21 38.428601 -83.377002 77 9591ft 143kts
22-Apr-17 22:22 38.433251 -83.327492 78 9587ft 143kts
22-Apr-17 22:23 38.437938 -83.277330 78 9587ft 142kts
22-Apr-17 22:24 38.442599 -83.227249 78 9587ft 142kts
22-Apr-17 22:25 38.447256 -83.177006 78 9587ft 142kts
22-Apr-17 22:26 38.451882 -83.126837 78 9588ft 142kts
22-Apr-17 22:27 38.456497 -83.076516 78 9588ft 142kts
22-Apr-17 22:28 38.461093 -83.026185 78 9588ft 142kts
22-Apr-17 22:29 38.465657 -82.975986 78 9588ft 143kts
22-Apr-17 22:30 38.470206 -82.925690 78 9589ft 143kts
22-Apr-17 22:31 38.474737 -82.875333 78 9589ft 143kts
22-Apr-17 22:32 38.479252 -82.824893 78 9589ft 143kts
22-Apr-17 22:33 38.483748 -82.774391 78 9589ft 143kts
22-Apr-17 22:34 38.488213 -82.724047 78 9589ft 143kts
22-Apr-17 22:35 38.492676 -82.673460 78 9590ft 143kts
22-Apr-17 22:36 38.497088 -82.623217 78 9590ft 143kts
22-Apr-17 22:37 38.501495 -82.572732 78 9590ft 143kts
22-Apr-17 22:38 38.505887 -82.522146 78 9590ft 143kts
22-Apr-17 22:39 38.510255 -82.471575 78 9590ft 143kts
22-Apr-17 22:40 38.514611 -82.420922 78 9591ft 143kts
22-Apr-17 22:41 38.518936 -82.370340 78 9591ft 143kts
22-Apr-17 22:42 38.523209 -82.320159 79 9587ft 143kts
22-Apr-17 22:43 38.527484 -82.269695 79 9587ft 143kts
22-Apr-17 22:44 38.531742 -82.219214 79 9587ft 143kts
22-Apr-17 22:45 38.535947 -82.169050 79 9587ft 143kts
22-Apr-17 22:46 38.540163 -82.118481 79 9588ft 143kts
22-Apr-17 22:47 38.544353 -82.068034 79 9588ft 143kts
22-Apr-17 22:48 38.548530 -82.017359 79 9588ft 143kts
22-Apr-17 22:49 38.552680 -81.966788 79 9588ft 143kts
22-Apr-17 22:50 38.556808 -81.916223 79 9588ft 143kts
22-Apr-17 22:51 38.560918 -81.865615 79 9589ft 143kts
22-Apr-17 22:52 38.565007 -81.814929 79 9589ft 143kts
22-Apr-17 22:53 38.569073 -81.764326 79 9589ft 143kts
22-Apr-17 22:54 38.573110 -81.713767 79 9589ft 143kts
22-Apr-17 22:55 38.577136 -81.663067 79 9589ft 143kts
22-Apr-17 22:56 38.581150 -81.612318 79 9590ft 143kts
22-Apr-17 22:57 38.585133 -81.561638 79 9590ft 143kts
22-Apr-17 22:58 38.589094 -81.510723 77 9592ft 143kts
22-Apr-17 22:59 38.593000 -81.460535 77 9590ft 141kts
22-Apr-17 23:00 38.596873 -81.410555 77 9590ft 141kts
22-Apr-17 23:01 38.600708 -81.360664 77 9590ft 141kts
22-Apr-17 23:02 38.604476 -81.311352 78 9587ft 141kts
22-Apr-17 23:03 38.608260 -81.261468 78 9587ft 140kts
22-Apr-17 23:04 38.612016 -81.211764 78 9587ft 140kts
22-Apr-17 23:05 38.615741 -81.162129 78 9587ft 140kts
22-Apr-17 23:06 38.619459 -81.112318 78 9587ft 140kts
22-Apr-17 23:07 38.623160 -81.062406 78 9588ft 140kts
22-Apr-17 23:07 38.626215 -81.021014 78 9588ft 140kts
22-Apr-17 23:09 38.630433 -80.962937 78 9587ft 140kts
22-Apr-17 23:09 38.633512 -80.921426 78 9588ft 141kts
22-Apr-17 23:11 38.637724 -80.863310 78 9588ft 141kts
22-Apr-17 23:12 38.641323 -80.813384 78 9588ft 141kts
22-Apr-17 23:13 38.644898 -80.763453 78 9589ft 141kts
22-Apr-17 23:14 38.648461 -80.713417 78 9589ft 141kts
22-Apr-17 23:14 38.651410 -80.671776 78 9589ft 141kts
22-Apr-17 23:16 38.655501 -80.613575 78 9589ft 141kts
22-Apr-17 23:16 38.658417 -80.571907 78 9589ft 141kts
22-Apr-17 23:17 38.661895 -80.521906 78 9590ft 141kts
22-Apr-17 23:19 38.665930 -80.463501 78 9590ft 141kts
22-Apr-17 23:19 38.668782 -80.421942 78 9590ft 141kts
22-Apr-17 23:21 38.672764 -80.363557 78 9590ft 141kts
22-Apr-17 23:22 38.676011 -80.314385 80 9586ft 141kts
22-Apr-17 23:22 38.678622 -80.272734 79 9587ft 140kts
22-Apr-17 23:23 38.681630 -80.223577 79 9587ft 140kts
22-Apr-17 23:24 38.684815 -80.173897 79 9587ft 140kts
22-Apr-17 23:25 38.688052 -80.124659 79 9587ft 140kts
22-Apr-17 23:26 38.691331 -80.074784 79 9587ft 140kts
22-Apr-17 23:27 38.694594 -80.024893 79 9587ft 140kts
22-Apr-17 23:28 38.697844 -79.974890 79 9588ft 140kts
22-Apr-17 23:29 38.701061 -79.925045 79 9588ft 140kts
22-Apr-17 23:30 38.704262 -79.875150 79 9588ft 140kts
22-Apr-17 23:31 38.707491 -79.825191 79 9588ft 140kts
22-Apr-17 23:32 38.710595 -79.775326 78 9588ft 140kts
22-Apr-17 23:33 38.713757 -79.725461 79 9589ft 141kts
22-Apr-17 23:34 38.716872 -79.675484 79 9589ft 141kts
22-Apr-17 23:35 38.719980 -79.625509 79 9589ft 141kts
22-Apr-17 23:36 38.723031 -79.575786 78 9614ft 140kts
22-Apr-17 23:37 38.726087 -79.525910 79 9616ft 141kts
22-Apr-17 23:38 38.729112 -79.475570 78 9617ft 141kts
22-Apr-17 23:39 38.732149 -79.425525 79 9617ft 141kts
22-Apr-17 23:40 38.735158 -79.375281 79 9617ft 141kts
22-Apr-17 23:41 38.737690 -79.332887 79 9613ft 141kts
22-Apr-17 23:42 38.740610 -79.283167 79 9636ft 139kts
22-Apr-17 23:43 38.743552 -79.233440 79 9641ft 140kts
22-Apr-17 23:44 38.746439 -79.183541 79 9641ft 140kts
22-Apr-17 23:45 38.749326 -79.133618 79 9641ft 140kts
22-Apr-17 23:46 38.752197 -79.083609 79 9641ft 140kts
22-Apr-17 23:47 38.754523 -79.042817 79 9641ft 140kts
22-Apr-17 23:48 38.757341 -78.993090 79 9633ft 141kts
22-Apr-17 23:49 38.760167 -78.942761 79 9614ft 141kts
22-Apr-17 23:50 38.762961 -78.892636 79 9615ft 141kts
22-Apr-17 23:51 38.765722 -78.842672 79 9615ft 141kts
22-Apr-17 23:52 38.768469 -78.792538 79 9615ft 141kts
22-Apr-17 23:53 38.771189 -78.742499 79 9615ft 141kts
22-Apr-17 23:54 38.773886 -78.692591 79 9615ft 140kts
22-Apr-17 23:55 38.776561 -78.642577 79 9616ft 140kts
22-Apr-17 23:56 38.779218 -78.592534 79 9616ft 141kts
22-Apr-17 23:57 38.781853 -78.542477 79 9616ft 141kts
22-Apr-17 23:58 38.784462 -78.492500 79 9616ft 141kts
22-Apr-17 23:59 38.787063 -78.442359 79 9616ft 141kts
23-Apr-17 00:00 38.789643 -78.392216 79 9617ft 141kts
23-Apr-17 00:01 38.792091 -78.344290 80 9614ft 141kts
23-Apr-17 00:02 38.794524 -78.296169 80 9613ft 140kts
23-Apr-17 00:03 38.797026 -78.246235 80 9613ft 140kts
23-Apr-17 00:04 38.799514 -78.196173 80 9613ft 140kts
23-Apr-17 00:06 38.801970 -78.146315 80 9614ft 140kts
23-Apr-17 00:07 38.804405 -78.096471 80 9620ft 140kts
23-Apr-17 00:08 38.806814 -78.046817 80 9641ft 140kts
23-Apr-17 00:09 38.809201 -77.997087 80 9641ft 140kts
23-Apr-17 00:10 38.811578 -77.947087 80 9641ft 140kts
23-Apr-17 00:11 38.813934 -77.897077 80 9642ft 140kts
23-Apr-17 00:12 38.816273 -77.846949 80 9642ft 140kts
23-Apr-17 00:13 38.818586 -77.796925 80 9642ft 141kts
23-Apr-17 00:14 38.820887 -77.746723 80 9642ft 141kts
23-Apr-17 00:15 38.823167 -77.696586 80 9642ft 141kts
23-Apr-17 00:16 38.825501 -77.646485 79 9642ft 141kts
23-Apr-17 00:17 38.827819 -77.596527 80 9641ft 141kts
23-Apr-17 00:18 38.830049 -77.546039 80 9616ft 141kts
23-Apr-17 00:19 38.832245 -77.495775 80 9616ft 141kts
23-Apr-17 00:20 38.834300 -77.448085 79 9557ft 143kts
23-Apr-17 00:21 38.840017 -77.398509 71 8854ft 137kts
23-Apr-17 00:22 38.847245 -77.352509 71 7657ft 129kts
23-Apr-17 00:23 38.854500 -77.308770 71 6462ft 126kts
23-Apr-17 00:24 38.862099 -77.265574 71 5255ft 123kts
23-Apr-17 00:25 38.869706 -77.223471 71 4058ft 122kts
23-Apr-17 00:26 38.877380 -77.182500 73 2902ft 113kts
23-Apr-17 00:27 38.887114 -77.144217 78 1723ft 110kts
23-Apr-17 00:28 38.890554 -77.109729 91 1349ft 95kts
23-Apr-17 00:29 38.889466 -77.074924 95 946ft 96kts
23-Apr-17 00:30 38.872157 -77.053963 145 397ft 86kts
23-Apr-17 00:31 38.858278 -77.040508 142 18ft 38kts
23-Apr-17 00:32 38.857316 -77.041142 305 18ft 11kts
23-Apr-17 00:33 38.858753 -77.043279 237 18ft 4kts
23-Apr-17 00:34 38.858662 -77.043591 254 18ft 0kts
23-Apr-17 00:35 38.858662 -77.043591 254 18ft 0kts
23-Apr-17 00:36 38.858662 -77.043591 254 18ft 0kts
23-Apr-17 00:37 38.858662 -77.043591 254 18ft 0kts
23-Apr-17 00:38 38.858662 -77.043591 254 18ft 0kts
23-Apr-17 00:39 38.858662 -77.043591 254 18ft 0kts
23-Apr-17 00:40 38.858662 -77.043591 254 18ft 0kts
23-Apr-17 00:41 38.858662 -77.043591 254 18ft 0kts
23-Apr-17 00:42 38.858662 -77.043591 254 18ft 0kts
23-Apr-17 00:43 38.858662 -77.043591 254 18ft 0kts
23-Apr-17 00:44 38.858662 -77.043591 254 18ft 0kts
23-Apr-17 00:45 38.858662 -77.043592 254 18ft 0kts

Navigation Log

Ident Type
Flight plan parsing failed, navigation log unavailable